Biddulph, United Kingdom
Current Conditions -  °F | °C
As of 5:50 PM on Friday 24 Oct 2014 (Local Time) from EGCC Reporting Station
Clear Clear  
Wind Chill: 11°   Ceiling: Unl
Heat Index: 11°   Visibility: 6mi
Dew Point:   Wind: 6mph
Humidity: 76%   Direction: 230°SW
Pressure: 29.85"   Gusts: NA
Location:  53.12°N, 2.18°W
Report Text: EGCC 241650Z 23005KT CAVOK 11/07 Q1011 NOSIG
Loading
Personal Weather Stations






























Interactive Weather Map
Tropical Storm Tracking
New forecast layout! Learn more

10-Day Weather Forecast

Advertisements
Track Severe Weather on mobile